sensor_id;sensor_type;location;lat;lon;timestamp;P1;durP1;ratioP1;P2;durP2;ratioP2
45714;SDS011;31430;61.646;24.704;2023-05-10T00:01:48;30.02;;;28.13;;
45714;SDS011;31430;61.646;24.704;2023-05-10T00:04:14;30.58;;;28.67;;
45714;SDS011;31430;61.646;24.704;2023-05-10T00:20:38;56.38;;;52.88;;
45714;SDS011;31430;61.646;24.704;2023-05-10T00:23:03;43.03;;;40.33;;
45714;SDS011;31430;61.646;24.704;2023-05-10T00:25:29;39.80;;;37.30;;
45714;SDS011;31430;61.646;24.704;2023-05-10T00:27:55;38.78;;;36.38;;
45714;SDS011;31430;61.646;24.704;2023-05-10T00:30:22;35.75;;;33.55;;
45714;SDS011;31430;61.646;24.704;2023-05-10T00:32:47;35.53;;;33.33;;
45714;SDS011;31430;61.646;24.704;2023-05-10T00:35:14;35.22;;;33.03;;
45714;SDS011;31430;61.646;24.704;2023-05-10T00:37:40;33.63;;;31.52;;
45714;SDS011;31430;61.646;24.704;2023-05-10T00:40:06;33.47;;;31.38;;
45714;SDS011;31430;61.646;24.704;2023-05-10T00:42:32;33.05;;;30.98;;
45714;SDS011;31430;61.646;24.704;2023-05-10T00:44:58;30.67;;;28.77;;
45714;SDS011;31430;61.646;24.704;2023-05-10T00:47:24;31.65;;;29.65;;
45714;SDS011;31430;61.646;24.704;2023-05-10T00:49:49;31.98;;;29.98;;
45714;SDS011;31430;61.646;24.704;2023-05-10T00:52:15;30.25;;;28.35;;
45714;SDS011;31430;61.646;24.704;2023-05-10T00:54:41;31.48;;;29.50;;
45714;SDS011;31430;61.646;24.704;2023-05-10T00:57:07;31.42;;;29.45;;
45714;SDS011;31430;61.646;24.704;2023-05-10T00:59:32;32.55;;;30.55;;
45714;SDS011;31430;61.646;24.704;2023-05-10T01:01:58;31.58;;;29.58;;
45714;SDS011;31430;61.646;24.704;2023-05-10T01:04:24;30.38;;;28.48;;
45714;SDS011;31430;61.646;24.704;2023-05-10T01:06:53;31.65;;;29.65;;
45714;SDS011;31430;61.646;24.704;2023-05-10T01:09:19;31.20;;;29.25;;
45714;SDS011;31430;61.646;24.704;2023-05-10T01:11:46;31.25;;;29.30;;
45714;SDS011;31430;61.646;24.704;2023-05-10T01:14:13;32.22;;;30.23;;
45714;SDS011;31430;61.646;24.704;2023-05-10T01:16:41;32.15;;;30.15;;
45714;SDS011;31430;61.646;24.704;2023-05-10T01:21:58;32.45;;;30.45;;
45714;SDS011;31430;61.646;24.704;2023-05-10T01:35:42;31.75;;;29.75;;
45714;SDS011;31430;61.646;24.704;2023-05-10T01:43:53;32.05;;;30.05;;
45714;SDS011;31430;61.646;24.704;2023-05-10T01:46:37;32.38;;;30.38;;
45714;SDS011;31430;61.646;24.704;2023-05-10T01:49:08;32.58;;;30.55;;
45714;SDS011;31430;61.646;24.704;2023-05-10T01:51:44;32.25;;;30.25;;
45714;SDS011;31430;61.646;24.704;2023-05-10T01:54:12;32.67;;;30.65;;
45714;SDS011;31430;61.646;24.704;2023-05-10T01:56:39;31.02;;;29.10;;
45714;SDS011;31430;61.646;24.704;2023-05-10T01:59:09;32.03;;;30.02;;
45714;SDS011;31430;61.646;24.704;2023-05-10T02:01:39;31.77;;;29.77;;
45714;SDS011;31430;61.646;24.704;2023-05-10T02:04:06;32.53;;;30.50;;
45714;SDS011;31430;61.646;24.704;2023-05-10T02:06:33;31.40;;;29.40;;
45714;SDS011;31430;61.646;24.704;2023-05-10T02:09:00;31.92;;;29.92;;
45714;SDS011;31430;61.646;24.704;2023-05-10T02:11:28;32.50;;;30.50;;
45714;SDS011;31430;61.646;24.704;2023-05-10T02:13:56;32.30;;;30.30;;
45714;SDS011;31430;61.646;24.704;2023-05-10T02:16:24;32.97;;;30.90;;
45714;SDS011;31430;61.646;24.704;2023-05-10T02:18:51;32.33;;;30.33;;
45714;SDS011;31430;61.646;24.704;2023-05-10T02:21:19;31.10;;;29.15;;
45714;SDS011;31430;61.646;24.704;2023-05-10T02:23:46;31.60;;;29.60;;
45714;SDS011;31430;61.646;24.704;2023-05-10T02:26:15;32.58;;;30.55;;
45714;SDS011;31430;61.646;24.704;2023-05-10T02:28:42;32.33;;;30.33;;
45714;SDS011;31430;61.646;24.704;2023-05-10T02:31:08;30.65;;;28.75;;
45714;SDS011;31430;61.646;24.704;2023-05-10T02:33:35;32.15;;;30.15;;
45714;SDS011;31430;61.646;24.704;2023-05-10T02:36:04;31.52;;;29.52;;
45714;SDS011;31430;61.646;24.704;2023-05-10T02:38:32;31.60;;;29.60;;
45714;SDS011;31430;61.646;24.704;2023-05-10T02:40:59;31.70;;;29.70;;
45714;SDS011;31430;61.646;24.704;2023-05-10T02:43:26;31.17;;;29.23;;
45714;SDS011;31430;61.646;24.704;2023-05-10T02:45:55;31.52;;;29.52;;
45714;SDS011;31430;61.646;24.704;2023-05-10T02:48:20;31.25;;;29.30;;
45714;SDS011;31430;61.646;24.704;2023-05-10T02:50:46;31.10;;;29.15;;
45714;SDS011;31430;61.646;24.704;2023-05-10T02:53:18;31.85;;;29.85;;
45714;SDS011;31430;61.646;24.704;2023-05-10T02:55:49;29.77;;;27.90;;
45714;SDS011;31430;61.646;24.704;2023-05-10T02:58:17;30.40;;;28.50;;
45714;SDS011;31430;61.646;24.704;2023-05-10T03:00:46;30.80;;;28.90;;
45714;SDS011;31430;61.646;24.704;2023-05-10T03:03:12;30.40;;;28.50;;
45714;SDS011;31430;61.646;24.704;2023-05-10T03:05:37;30.30;;;28.40;;
45714;SDS011;31430;61.646;24.704;2023-05-10T03:08:03;30.30;;;28.40;;
45714;SDS011;31430;61.646;24.704;2023-05-10T03:10:30;30.13;;;28.23;;
45714;SDS011;31430;61.646;24.704;2023-05-10T03:15:51;30.52;;;28.63;;
45714;SDS011;31430;61.646;24.704;2023-05-10T03:18:28;29.63;;;27.77;;
45714;SDS011;31430;61.646;24.704;2023-05-10T03:21:03;30.38;;;28.48;;
45714;SDS011;31430;61.646;24.704;2023-05-10T03:26:01;30.35;;;28.45;;
45714;SDS011;31430;61.646;24.704;2023-05-10T03:28:29;29.60;;;27.75;;
45714;SDS011;31430;61.646;24.704;2023-05-10T03:30:56;30.23;;;28.33;;
45714;SDS011;31430;61.646;24.704;2023-05-10T03:33:24;29.35;;;27.52;;
45714;SDS011;31430;61.646;24.704;2023-05-10T03:35:50;29.25;;;27.45;;
45714;SDS011;31430;61.646;24.704;2023-05-10T03:38:15;29.25;;;27.45;;
45714;SDS011;31430;61.646;24.704;2023-05-10T03:40:41;29.17;;;27.38;;
45714;SDS011;31430;61.646;24.704;2023-05-10T03:43:07;29.90;;;28.00;;
45714;SDS011;31430;61.646;24.704;2023-05-10T03:45:32;30.50;;;28.60;;
45714;SDS011;31430;61.646;24.704;2023-05-10T03:47:58;29.25;;;27.45;;
45714;SDS011;31430;61.646;24.704;2023-05-10T03:50:24;30.10;;;28.20;;
45714;SDS011;31430;61.646;24.704;2023-05-10T03:52:50;30.15;;;28.25;;
45714;SDS011;31430;61.646;24.704;2023-05-10T03:55:15;29.67;;;27.83;;
45714;SDS011;31430;61.646;24.704;2023-05-10T03:57:41;29.58;;;27.73;;
45714;SDS011;31430;61.646;24.704;2023-05-10T04:00:07;30.13;;;28.23;;
45714;SDS011;31430;61.646;24.704;2023-05-10T04:02:34;28.23;;;26.45;;
45714;SDS011;31430;61.646;24.704;2023-05-10T04:05:00;28.50;;;26.70;;
45714;SDS011;31430;61.646;24.704;2023-05-10T04:07:26;29.05;;;27.25;;
45714;SDS011;31430;61.646;24.704;2023-05-10T04:09:51;29.73;;;27.85;;
45714;SDS011;31430;61.646;24.704;2023-05-10T04:12:17;28.88;;;27.08;;
45714;SDS011;31430;61.646;24.704;2023-05-10T04:14:43;29.55;;;27.70;;
45714;SDS011;31430;61.646;24.704;2023-05-10T04:17:08;28.88;;;27.08;;
45714;SDS011;31430;61.646;24.704;2023-05-10T04:19:35;29.98;;;28.08;;
45714;SDS011;31430;61.646;24.704;2023-05-10T04:22:01;28.35;;;26.55;;
45714;SDS011;31430;61.646;24.704;2023-05-10T04:24:27;28.23;;;26.42;;
45714;SDS011;31430;61.646;24.704;2023-05-10T04:26:54;27.73;;;26.00;;
45714;SDS011;31430;61.646;24.704;2023-05-10T04:29:20;28.15;;;26.38;;
45714;SDS011;31430;61.646;24.704;2023-05-10T04:31:46;28.23;;;26.42;;
45714;SDS011;31430;61.646;24.704;2023-05-10T04:34:11;28.17;;;26.40;;
45714;SDS011;31430;61.646;24.704;2023-05-10T04:36:37;27.65;;;25.92;;
45714;SDS011;31430;61.646;24.704;2023-05-10T04:39:03;26.95;;;25.25;;
45714;SDS011;31430;61.646;24.704;2023-05-10T04:41:29;28.13;;;26.35;;
45714;SDS011;31430;61.646;24.704;2023-05-10T04:43:55;27.70;;;25.98;;
45714;SDS011;31430;61.646;24.704;2023-05-10T04:46:20;27.58;;;25.88;;
45714;SDS011;31430;61.646;24.704;2023-05-10T04:48:46;26.35;;;24.70;;
45714;SDS011;31430;61.646;24.704;2023-05-10T04:51:12;27.25;;;25.55;;
45714;SDS011;31430;61.646;24.704;2023-05-10T04:53:38;27.52;;;25.83;;
45714;SDS011;31430;61.646;24.704;2023-05-10T04:56:03;26.60;;;24.90;;
45714;SDS011;31430;61.646;24.704;2023-05-10T04:58:30;27.48;;;25.77;;
45714;SDS011;31430;61.646;24.704;2023-05-10T05:00:55;27.02;;;25.33;;
45714;SDS011;31430;61.646;24.704;2023-05-10T05:03:21;26.17;;;24.55;;
45714;SDS011;31430;61.646;24.704;2023-05-10T05:05:47;26.25;;;24.60;;
45714;SDS011;31430;61.646;24.704;2023-05-10T05:08:13;26.98;;;25.27;;
45714;SDS011;31430;61.646;24.704;2023-05-10T05:10:39;27.02;;;25.33;;
45714;SDS011;31430;61.646;24.704;2023-05-10T05:13:05;26.60;;;24.90;;
45714;SDS011;31430;61.646;24.704;2023-05-10T05:15:30;26.30;;;24.65;;
45714;SDS011;31430;61.646;24.704;2023-05-10T05:17:56;25.55;;;23.95;;
45714;SDS011;31430;61.646;24.704;2023-05-10T05:20:22;26.40;;;24.73;;
45714;SDS011;31430;61.646;24.704;2023-05-10T05:22:48;25.77;;;24.17;;
45714;SDS011;31430;61.646;24.704;2023-05-10T05:25:14;25.65;;;24.05;;
45714;SDS011;31430;61.646;24.704;2023-05-10T05:27:40;25.65;;;24.05;;
45714;SDS011;31430;61.646;24.704;2023-05-10T05:30:06;25.90;;;24.30;;
45714;SDS011;31430;61.646;24.704;2023-05-10T05:32:32;26.65;;;24.95;;
45714;SDS011;31430;61.646;24.704;2023-05-10T05:34:58;26.60;;;24.90;;
45714;SDS011;31430;61.646;24.704;2023-05-10T05:37:24;26.63;;;24.92;;
45714;SDS011;31430;61.646;24.704;2023-05-10T05:39:50;26.38;;;24.73;;
45714;SDS011;31430;61.646;24.704;2023-05-10T05:42:15;25.58;;;23.98;;
45714;SDS011;31430;61.646;24.704;2023-05-10T05:44:43;26.15;;;24.52;;
45714;SDS011;31430;61.646;24.704;2023-05-10T05:47:09;26.55;;;24.88;;
45714;SDS011;31430;61.646;24.704;2023-05-10T05:49:35;27.15;;;25.45;;
45714;SDS011;31430;61.646;24.704;2023-05-10T05:52:02;25.80;;;24.20;;
45714;SDS011;31430;61.646;24.704;2023-05-10T05:54:28;25.95;;;24.35;;
45714;SDS011;31430;61.646;24.704;2023-05-10T05:56:55;25.08;;;23.48;;
45714;SDS011;31430;61.646;24.704;2023-05-10T05:59:25;25.23;;;23.63;;
45714;SDS011;31430;61.646;24.704;2023-05-10T06:04:17;27.05;;;25.35;;
45714;SDS011;31430;61.646;24.704;2023-05-10T06:06:43;26.17;;;24.55;;
45714;SDS011;31430;61.646;24.704;2023-05-10T06:09:09;26.85;;;25.15;;
45714;SDS011;31430;61.646;24.704;2023-05-10T06:11:35;25.92;;;24.33;;
45714;SDS011;31430;61.646;24.704;2023-05-10T06:14:01;25.42;;;23.83;;
45714;SDS011;31430;61.646;24.704;2023-05-10T06:16:28;27.25;;;25.55;;
45714;SDS011;31430;61.646;24.704;2023-05-10T06:18:54;25.13;;;23.52;;
45714;SDS011;31430;61.646;24.704;2023-05-10T06:21:20;25.30;;;23.70;;
45714;SDS011;31430;61.646;24.704;2023-05-10T06:23:46;26.05;;;24.42;;
45714;SDS011;31430;61.646;24.704;2023-05-10T06:26:11;25.65;;;24.05;;
45714;SDS011;31430;61.646;24.704;2023-05-10T06:28:38;25.90;;;24.30;;
45714;SDS011;31430;61.646;24.704;2023-05-10T06:31:04;25.13;;;23.52;;
45714;SDS011;31430;61.646;24.704;2023-05-10T06:33:31;24.95;;;23.35;;
45714;SDS011;31430;61.646;24.704;2023-05-10T06:35:57;25.27;;;23.67;;
45714;SDS011;31430;61.646;24.704;2023-05-10T06:38:23;25.98;;;24.38;;
45714;SDS011;31430;61.646;24.704;2023-05-10T06:40:49;24.98;;;23.38;;
45714;SDS011;31430;61.646;24.704;2023-05-10T06:43:14;24.50;;;22.98;;
45714;SDS011;31430;61.646;24.704;2023-05-10T06:45:40;25.35;;;23.75;;
45714;SDS011;31430;61.646;24.704;2023-05-10T06:48:06;24.55;;;23.02;;
45714;SDS011;31430;61.646;24.704;2023-05-10T06:50:32;25.17;;;23.58;;
45714;SDS011;31430;61.646;24.704;2023-05-10T06:55:24;26.20;;;24.58;;
45714;SDS011;31430;61.646;24.704;2023-05-10T06:57:49;24.95;;;23.35;;
45714;SDS011;31430;61.646;24.704;2023-05-10T07:00:16;25.25;;;23.65;;
45714;SDS011;31430;61.646;24.704;2023-05-10T07:02:42;25.65;;;24.05;;
45714;SDS011;31430;61.646;24.704;2023-05-10T07:05:08;26.20;;;24.58;;
45714;SDS011;31430;61.646;24.704;2023-05-10T07:07:34;25.10;;;23.50;;
45714;SDS011;31430;61.646;24.704;2023-05-10T07:10:00;26.20;;;24.58;;
45714;SDS011;31430;61.646;24.704;2023-05-10T07:12:25;25.30;;;23.70;;
45714;SDS011;31430;61.646;24.704;2023-05-10T07:14:51;26.50;;;24.83;;
45714;SDS011;31430;61.646;24.704;2023-05-10T07:17:17;25.20;;;23.60;;
45714;SDS011;31430;61.646;24.704;2023-05-10T07:19:43;25.35;;;23.75;;
45714;SDS011;31430;61.646;24.704;2023-05-10T07:22:08;25.38;;;23.77;;
45714;SDS011;31430;61.646;24.704;2023-05-10T07:24:34;25.70;;;24.10;;
45714;SDS011;31430;61.646;24.704;2023-05-10T07:27:00;24.48;;;22.95;;
45714;SDS011;31430;61.646;24.704;2023-05-10T07:29:26;25.70;;;24.10;;
45714;SDS011;31430;61.646;24.704;2023-05-10T07:31:52;24.95;;;23.35;;
45714;SDS011;31430;61.646;24.704;2023-05-10T07:34:18;26.00;;;24.38;;
45714;SDS011;31430;61.646;24.704;2023-05-10T07:36:43;24.85;;;23.25;;
45714;SDS011;31430;61.646;24.704;2023-05-10T07:39:09;24.83;;;23.23;;
45714;SDS011;31430;61.646;24.704;2023-05-10T07:41:35;25.20;;;23.60;;
45714;SDS011;31430;61.646;24.704;2023-05-10T07:44:02;26.05;;;24.45;;
45714;SDS011;31430;61.646;24.704;2023-05-10T07:46:29;25.13;;;23.52;;
45714;SDS011;31430;61.646;24.704;2023-05-10T07:48:54;25.25;;;23.65;;
45714;SDS011;31430;61.646;24.704;2023-05-10T07:51:20;24.88;;;23.27;;
45714;SDS011;31430;61.646;24.704;2023-05-10T07:53:46;24.58;;;23.05;;
45714;SDS011;31430;61.646;24.704;2023-05-10T07:56:25;24.17;;;22.67;;
45714;SDS011;31430;61.646;24.704;2023-05-10T07:58:54;24.33;;;22.83;;
45714;SDS011;31430;61.646;24.704;2023-05-10T08:01:24;24.67;;;23.13;;
45714;SDS011;31430;61.646;24.704;2023-05-10T08:03:50;23.70;;;22.20;;
45714;SDS011;31430;61.646;24.704;2023-05-10T08:06:18;24.15;;;22.65;;
45714;SDS011;31430;61.646;24.704;2023-05-10T08:08:47;23.95;;;22.45;;
45714;SDS011;31430;61.646;24.704;2023-05-10T08:11:18;23.05;;;21.60;;
45714;SDS011;31430;61.646;24.704;2023-05-10T08:13:45;24.58;;;23.02;;
45714;SDS011;31430;61.646;24.704;2023-05-10T08:18:37;25.58;;;23.98;;
45714;SDS011;31430;61.646;24.704;2023-05-10T08:21:03;24.15;;;22.65;;
45714;SDS011;31430;61.646;24.704;2023-05-10T08:23:29;25.00;;;23.40;;
45714;SDS011;31430;61.646;24.704;2023-05-10T08:25:55;23.23;;;21.75;;
45714;SDS011;31430;61.646;24.704;2023-05-10T08:28:21;23.55;;;22.05;;
45714;SDS011;31430;61.646;24.704;2023-05-10T08:30:46;24.38;;;22.85;;
45714;SDS011;31430;61.646;24.704;2023-05-10T08:33:12;22.88;;;21.45;;
45714;SDS011;31430;61.646;24.704;2023-05-10T08:35:38;23.83;;;22.33;;
45714;SDS011;31430;61.646;24.704;2023-05-10T08:38:04;23.95;;;22.45;;
45714;SDS011;31430;61.646;24.704;2023-05-10T08:40:29;23.70;;;22.20;;
45714;SDS011;31430;61.646;24.704;2023-05-10T08:42:57;23.45;;;21.95;;
45714;SDS011;31430;61.646;24.704;2023-05-10T08:45:31;24.15;;;22.65;;
45714;SDS011;31430;61.646;24.704;2023-05-10T08:47:59;24.58;;;23.05;;
45714;SDS011;31430;61.646;24.704;2023-05-10T08:50:27;23.92;;;22.42;;
45714;SDS011;31430;61.646;24.704;2023-05-10T08:52:55;23.67;;;22.17;;
45714;SDS011;31430;61.646;24.704;2023-05-10T08:55:25;22.92;;;21.52;;
45714;SDS011;31430;61.646;24.704;2023-05-10T08:57:51;23.63;;;22.13;;
45714;SDS011;31430;61.646;24.704;2023-05-10T09:00:16;22.70;;;21.30;;
45714;SDS011;31430;61.646;24.704;2023-05-10T09:02:43;23.10;;;21.63;;
45714;SDS011;31430;61.646;24.704;2023-05-10T09:05:10;23.10;;;21.65;;
45714;SDS011;31430;61.646;24.704;2023-05-10T09:10:02;23.00;;;21.55;;
45714;SDS011;31430;61.646;24.704;2023-05-10T09:12:29;22.92;;;21.50;;
45714;SDS011;31430;61.646;24.704;2023-05-10T09:14:55;23.35;;;21.85;;
45714;SDS011;31430;61.646;24.704;2023-05-10T09:17:23;22.88;;;21.45;;
45714;SDS011;31430;61.646;24.704;2023-05-10T09:19:49;23.23;;;21.75;;
45714;SDS011;31430;61.646;24.704;2023-05-10T09:22:15;22.50;;;21.10;;
45714;SDS011;31430;61.646;24.704;2023-05-10T09:24:42;22.55;;;21.15;;
45714;SDS011;31430;61.646;24.704;2023-05-10T09:27:10;22.25;;;20.85;;
45714;SDS011;31430;61.646;24.704;2023-05-10T09:29:39;21.42;;;20.05;;
45714;SDS011;31430;61.646;24.704;2023-05-10T09:32:06;21.52;;;20.15;;
45714;SDS011;31430;61.646;24.704;2023-05-10T09:34:32;21.95;;;20.55;;
45714;SDS011;31430;61.646;24.704;2023-05-10T09:37:00;21.85;;;20.45;;
45714;SDS011;31430;61.646;24.704;2023-05-10T09:41:58;21.63;;;20.23;;
45714;SDS011;31430;61.646;24.704;2023-05-10T09:44:26;21.65;;;20.25;;
45714;SDS011;31430;61.646;24.704;2023-05-10T09:49:18;21.75;;;20.35;;
45714;SDS011;31430;61.646;24.704;2023-05-10T09:51:45;22.30;;;20.90;;
45714;SDS011;31430;61.646;24.704;2023-05-10T09:54:14;21.27;;;19.95;;
45714;SDS011;31430;61.646;24.704;2023-05-10T09:56:41;21.80;;;20.40;;
45714;SDS011;31430;61.646;24.704;2023-05-10T09:59:11;22.95;;;21.50;;
45714;SDS011;31430;61.646;24.704;2023-05-10T10:01:38;21.85;;;20.45;;
45714;SDS011;31430;61.646;24.704;2023-05-10T10:06:34;22.65;;;21.25;;
45714;SDS011;31430;61.646;24.704;2023-05-10T10:09:04;22.48;;;21.08;;
45714;SDS011;31430;61.646;24.704;2023-05-10T10:11:34;22.85;;;21.45;;
45714;SDS011;31430;61.646;24.704;2023-05-10T10:14:01;21.65;;;20.25;;
45714;SDS011;31430;61.646;24.704;2023-05-10T10:16:28;21.52;;;20.13;;
45714;SDS011;31430;61.646;24.704;2023-05-10T10:18:54;22.00;;;20.60;;
45714;SDS011;31430;61.646;24.704;2023-05-10T10:21:20;21.48;;;20.10;;
45714;SDS011;31430;61.646;24.704;2023-05-10T10:23:47;20.45;;;19.15;;
45714;SDS011;31430;61.646;24.704;2023-05-10T10:26:13;21.75;;;20.35;;
45714;SDS011;31430;61.646;24.704;2023-05-10T10:28:49;20.73;;;19.42;;
45714;SDS011;31430;61.646;24.704;2023-05-10T10:31:40;21.10;;;19.80;;
45714;SDS011;31430;61.646;24.704;2023-05-10T10:34:28;20.98;;;19.67;;
45714;SDS011;31430;61.646;24.704;2023-05-10T10:36:55;21.40;;;20.05;;
45714;SDS011;31430;61.646;24.704;2023-05-10T10:39:21;21.52;;;20.15;;
45714;SDS011;31430;61.646;24.704;2023-05-10T10:41:54;21.27;;;19.98;;
45714;SDS011;31430;61.646;24.704;2023-05-10T10:47:00;21.90;;;20.50;;
45714;SDS011;31430;61.646;24.704;2023-05-10T10:57:42;22.60;;;21.20;;
45714;SDS011;31430;61.646;24.704;2023-05-10T11:02:48;22.05;;;20.65;;
45714;SDS011;31430;61.646;24.704;2023-05-10T11:08:06;20.73;;;19.43;;
45714;SDS011;31430;61.646;24.704;2023-05-10T11:10:34;21.58;;;20.20;;
45714;SDS011;31430;61.646;24.704;2023-05-10T11:13:00;21.80;;;20.40;;
45714;SDS011;31430;61.646;24.704;2023-05-10T11:15:31;20.58;;;19.27;;
45714;SDS011;31430;61.646;24.704;2023-05-10T11:18:17;21.35;;;20.00;;
45714;SDS011;31430;61.646;24.704;2023-05-10T11:21:01;20.85;;;19.55;;
45714;SDS011;31430;61.646;24.704;2023-05-10T11:23:47;20.83;;;19.52;;
45714;SDS011;31430;61.646;24.704;2023-05-10T11:26:14;21.85;;;20.45;;
45714;SDS011;31430;61.646;24.704;2023-05-10T11:28:44;21.10;;;19.80;;
45714;SDS011;31430;61.646;24.704;2023-05-10T11:31:13;21.05;;;19.75;;
45714;SDS011;31430;61.646;24.704;2023-05-10T11:33:49;21.52;;;20.15;;
45714;SDS011;31430;61.646;24.704;2023-05-10T11:36:20;21.17;;;19.88;;
45714;SDS011;31430;61.646;24.704;2023-05-10T11:38:51;21.48;;;20.10;;
45714;SDS011;31430;61.646;24.704;2023-05-10T11:41:18;21.40;;;20.05;;
45714;SDS011;31430;61.646;24.704;2023-05-10T11:43:46;21.63;;;20.23;;
45714;SDS011;31430;61.646;24.704;2023-05-10T11:46:14;21.00;;;19.70;;
45714;SDS011;31430;61.646;24.704;2023-05-10T11:48:43;21.42;;;20.05;;
45714;SDS011;31430;61.646;24.704;2023-05-10T11:51:09;20.65;;;19.35;;
45714;SDS011;31430;61.646;24.704;2023-05-10T11:53:36;21.00;;;19.70;;
45714;SDS011;31430;61.646;24.704;2023-05-10T11:56:06;20.88;;;19.58;;
45714;SDS011;31430;61.646;24.704;2023-05-10T11:58:33;20.85;;;19.55;;
45714;SDS011;31430;61.646;24.704;2023-05-10T12:01:00;21.95;;;20.55;;
45714;SDS011;31430;61.646;24.704;2023-05-10T12:03:26;21.30;;;19.95;;
45714;SDS011;31430;61.646;24.704;2023-05-10T12:05:53;21.40;;;20.05;;
45714;SDS011;31430;61.646;24.704;2023-05-10T12:08:21;20.67;;;19.38;;
45714;SDS011;31430;61.646;24.704;2023-05-10T12:10:48;21.27;;;19.95;;
45714;SDS011;31430;61.646;24.704;2023-05-10T12:13:14;21.13;;;19.83;;
45714;SDS011;31430;61.646;24.704;2023-05-10T12:15:40;20.85;;;19.55;;
45714;SDS011;31430;61.646;24.704;2023-05-10T12:18:10;21.02;;;19.73;;
45714;SDS011;31430;61.646;24.704;2023-05-10T12:20:36;20.48;;;19.17;;
45714;SDS011;31430;61.646;24.704;2023-05-10T12:23:02;20.63;;;19.33;;
45714;SDS011;31430;61.646;24.704;2023-05-10T12:25:35;20.35;;;19.05;;
45714;SDS011;31430;61.646;24.704;2023-05-10T12:28:03;21.33;;;20.00;;
45714;SDS011;31430;61.646;24.704;2023-05-10T12:30:31;20.65;;;19.35;;
45714;SDS011;31430;61.646;24.704;2023-05-10T12:33:10;20.05;;;18.75;;
45714;SDS011;31430;61.646;24.704;2023-05-10T12:35:51;20.55;;;19.25;;
45714;SDS011;31430;61.646;24.704;2023-05-10T12:38:51;20.45;;;19.15;;
45714;SDS011;31430;61.646;24.704;2023-05-10T12:41:14;20.70;;;19.40;;
45714;SDS011;31430;61.646;24.704;2023-05-10T12:43:41;20.25;;;18.95;;
45714;SDS011;31430;61.646;24.704;2023-05-10T12:46:07;20.58;;;19.27;;
45714;SDS011;31430;61.646;24.704;2023-05-10T12:48:34;20.65;;;19.35;;
45714;SDS011;31430;61.646;24.704;2023-05-10T12:51:01;20.05;;;18.75;;
45714;SDS011;31430;61.646;24.704;2023-05-10T12:53:28;20.17;;;18.88;;
45714;SDS011;31430;61.646;24.704;2023-05-10T12:55:54;20.27;;;18.98;;
45714;SDS011;31430;61.646;24.704;2023-05-10T12:58:20;20.65;;;19.35;;
45714;SDS011;31430;61.646;24.704;2023-05-10T13:00:45;20.63;;;19.33;;
45714;SDS011;31430;61.646;24.704;2023-05-10T13:03:11;20.70;;;19.40;;
45714;SDS011;31430;61.646;24.704;2023-05-10T13:05:37;20.33;;;19.02;;
45714;SDS011;31430;61.646;24.704;2023-05-10T13:08:03;21.00;;;19.70;;
45714;SDS011;31430;61.646;24.704;2023-05-10T13:10:29;20.25;;;18.95;;
45714;SDS011;31430;61.646;24.704;2023-05-10T13:12:56;20.98;;;19.67;;
45714;SDS011;31430;61.646;24.704;2023-05-10T13:15:25;20.40;;;19.10;;
45714;SDS011;31430;61.646;24.704;2023-05-10T13:17:52;20.65;;;19.35;;
45714;SDS011;31430;61.646;24.704;2023-05-10T13:20:18;20.65;;;19.35;;
45714;SDS011;31430;61.646;24.704;2023-05-10T13:22:44;20.42;;;19.13;;
45714;SDS011;31430;61.646;24.704;2023-05-10T13:25:10;20.05;;;18.75;;
45714;SDS011;31430;61.646;24.704;2023-05-10T13:30:02;20.35;;;19.05;;
45714;SDS011;31430;61.646;24.704;2023-05-10T13:32:29;20.33;;;19.02;;
45714;SDS011;31430;61.646;24.704;2023-05-10T13:34:55;20.67;;;19.38;;
45714;SDS011;31430;61.646;24.704;2023-05-10T13:37:20;20.05;;;18.75;;
45714;SDS011;31430;61.646;24.704;2023-05-10T13:39:47;20.95;;;19.65;;
45714;SDS011;31430;61.646;24.704;2023-05-10T13:42:12;20.83;;;19.52;;
45714;SDS011;31430;61.646;24.704;2023-05-10T13:44:38;20.63;;;19.33;;
45714;SDS011;31430;61.646;24.704;2023-05-10T13:47:04;20.17;;;18.88;;
45714;SDS011;31430;61.646;24.704;2023-05-10T13:49:30;20.35;;;19.05;;
45714;SDS011;31430;61.646;24.704;2023-05-10T13:51:56;19.63;;;18.40;;
45714;SDS011;31430;61.646;24.704;2023-05-10T13:54:21;19.80;;;18.55;;
45714;SDS011;31430;61.646;24.704;2023-05-10T13:56:48;20.35;;;19.05;;
45714;SDS011;31430;61.646;24.704;2023-05-10T13:59:14;20.33;;;19.02;;
45714;SDS011;31430;61.646;24.704;2023-05-10T14:01:40;20.88;;;19.58;;
45714;SDS011;31430;61.646;24.704;2023-05-10T14:04:07;19.45;;;18.25;;
45714;SDS011;31430;61.646;24.704;2023-05-10T14:06:35;19.58;;;18.35;;
45714;SDS011;31430;61.646;24.704;2023-05-10T14:09:01;19.52;;;18.33;;
45714;SDS011;31430;61.646;24.704;2023-05-10T14:13:53;20.35;;;19.05;;
45714;SDS011;31430;61.646;24.704;2023-05-10T14:16:19;19.98;;;18.67;;
45714;SDS011;31430;61.646;24.704;2023-05-10T14:18:45;19.67;;;18.45;;
45714;SDS011;31430;61.646;24.704;2023-05-10T14:23:37;20.88;;;19.58;;
45714;SDS011;31430;61.646;24.704;2023-05-10T14:26:02;20.02;;;18.73;;
45714;SDS011;31430;61.646;24.704;2023-05-10T14:28:28;20.50;;;19.20;;
45714;SDS011;31430;61.646;24.704;2023-05-10T14:30:54;19.85;;;18.58;;
45714;SDS011;31430;61.646;24.704;2023-05-10T14:33:20;19.92;;;18.65;;
45714;SDS011;31430;61.646;24.704;2023-05-10T14:35:46;20.35;;;19.05;;
45714;SDS011;31430;61.646;24.704;2023-05-10T14:38:12;20.17;;;18.88;;
45714;SDS011;31430;61.646;24.704;2023-05-10T14:40:38;20.80;;;19.50;;
45714;SDS011;31430;61.646;24.704;2023-05-10T14:43:04;20.25;;;18.95;;
45714;SDS011;31430;61.646;24.704;2023-05-10T14:45:30;20.00;;;18.70;;
45714;SDS011;31430;61.646;24.704;2023-05-10T14:47:56;19.80;;;18.55;;
45714;SDS011;31430;61.646;24.704;2023-05-10T14:50:22;20.55;;;19.25;;
45714;SDS011;31430;61.646;24.704;2023-05-10T14:52:48;20.05;;;18.75;;
45714;SDS011;31430;61.646;24.704;2023-05-10T14:55:14;20.75;;;19.45;;
45714;SDS011;31430;61.646;24.704;2023-05-10T14:57:40;20.63;;;19.33;;
45714;SDS011;31430;61.646;24.704;2023-05-10T15:00:06;20.75;;;19.45;;
45714;SDS011;31430;61.646;24.704;2023-05-10T15:02:32;20.35;;;19.05;;
45714;SDS011;31430;61.646;24.704;2023-05-10T15:04:58;20.10;;;18.80;;
45714;SDS011;31430;61.646;24.704;2023-05-10T15:07:23;20.88;;;19.58;;
45714;SDS011;31430;61.646;24.704;2023-05-10T15:09:49;20.55;;;19.25;;
45714;SDS011;31430;61.646;24.704;2023-05-10T15:12:16;20.75;;;19.45;;
45714;SDS011;31430;61.646;24.704;2023-05-10T15:14:42;20.17;;;18.88;;
45714;SDS011;31430;61.646;24.704;2023-05-10T15:17:08;20.35;;;19.05;;
45714;SDS011;31430;61.646;24.704;2023-05-10T15:19:35;19.65;;;18.42;;
45714;SDS011;31430;61.646;24.704;2023-05-10T15:22:01;19.98;;;18.67;;
45714;SDS011;31430;61.646;24.704;2023-05-10T15:26:52;20.85;;;19.55;;
45714;SDS011;31430;61.646;24.704;2023-05-10T15:29:18;20.40;;;19.10;;
45714;SDS011;31430;61.646;24.704;2023-05-10T15:31:47;20.48;;;19.17;;